WEATHER DATA

YESTERDAY
Time Temp. Dewp. Hum. Wind dir Wind speed Wind gust Bar.
00:17 15.9 10.4 70 270 1.9 2.8 1007.1
00:27 15.7 10 69 283 2.2 3.1 1006.9
00:37 15.5 10.1 70 276 2.2 3.3 1006.7
00:47 15.2 10.2 72 277 2.2 3.3 1006.6
00:57 15 10.2 73 270 1.9 3.1 1006.5
01:07 14.9 9.9 72 278 2.2 3.3 1006.3
01:17 14.8 10 73 278 2.2 2.8 1006.2
01:27 14.8 10.2 74 277 2.2 3.1 1005.8
01:37 14.6 10.2 75 270 1.7 2.5 1005.4
01:47 14.6 10 74 282 1.7 2.5 1005.2
01:57 14.6 10 74 280 1.7 2.5 1005
02:07 14.7 10.1 74 270 1.7 2.5 1004.8
02:17 15.1 10.3 73 276 1.4 2.2 1004.5
02:28 15 10 72 280 1.4 2.8 1004
02:38 15.6 10.2 70 249 0.8 1.9 1004
02:47 15.8 10.3 70 296 0.8 2.2 1004
02:58 15.7 10.3 70 270 0.6 1.9 1003.9
03:08 15.8 10.3 70 45 0.3 1.1 1004
03:18 16 10.5 70 225 0.6 1.7 1004.1
03:27 16.2 10.5 69 212 0.8 1.7 1004
03:38 16.1 10.4 69 270 0.6 1.4 1004.1
03:48 16.2 10.5 69 216 0.8 1.9 1004.2
03:58 16.4 10.5 68 234 1.1 1.9 1004.2
04:08 16.3 10.4 68 248 0.8 1.4 1004.2
04:18 16.3 10.2 67 248 0.6 1.4 1004.2
04:28 16.2 10.3 68 241 0.8 1.9 1004.2
04:38 16.1 10.2 68 270 0.6 1.4 1004.1
04:49 15.9 10 68 259 0.8 1.9 1004.1
04:58 15.8 10.1 69 339 0.8 1.7 1004.1
05:08 15.5 9.6 68 252 1.1 2.5 1004.1
05:19 15.3 9.7 69 270 1.1 2.5 1004.1
05:29 15.2 9.8 70 223 0.8 1.9 1004.1
05:38 14.8 9.6 71 240 0.8 1.7 1004.1
05:48 14.7 9.7 72 321 1.1 1.9 1004
05:59 14.6 9.8 73 270 0.8 1.4 1003.8
06:13 14.5 10.3 76 247 1.9 5.8 1003.7
06:23 14.6 10.4 76 242 4.7 6.7 1003.6
06:34 14.8 10.4 75 250 1.1 3.3 1003.5
06:44 15 10.6 75 239 1.1 2.8 1003.3
06:53 15.2 11 76 251 1.7 4.4 1003.6
07:04 15.4 11 75 80 2.2 4.7 1003.5
07:14 15.7 11.3 75 90 2.8 5 1003.5
07:24 15.8 11.4 75 2.5 5.6 1003.6
07:34 16.1 11.5 74 2.8 5.8 1003.7
07:44 16.4 11.8 74 86 3.6 6.9 1003.8
07:54 16.7 12 74 87 4.7 9.2 1003.9
08:04 16.9 11.8 72 82 3.9 7.8 1003.9
08:18 17.3 12.4 73 4.2 11.7 1003.8
08:28 18 12.5 70 73 3.9 6.7 1003.7
08:37 18.1 12.5 70 52 4.2 11.1 1003.6
08:47 18.3 12.7 70 189 3.6 6.4 1003.2
08:57 18.8 12.8 68 57 3.3 5.3 1003.1
09:04 19 12.7 67 191 5.8 13.6 1003.7
09:10 19.1 12.8 67 207 7.2 16.4 1003.6
09:20 18.9 12.6 67 285 6.9 14.7 1003.6
09:30 18.9 12.9 68 243 4.4 9.4 1003.3
09:40 18.9 12.6 67 255 4.2 8.1 1003.7
09:50 18.9 12.6 67 243 3.3 6.9 1003.9
10:01 18.9 12.9 68 256 4.7 7.8 1003.6
10:10 19 13 68 260 2.5 5 1003.7
10:20 19.1 13.1 68 250 3.1 6.1 1003.7
10:30 19.1 13.3 69 252 3.3 6.4 1003.6
10:41 19 13 68 261 4.7 7.2 1003.6
10:50 18.9 13.1 69 259 3.1 6.4 1003.5
11:00 18.9 13.3 70 259 4.2 6.7 1003.6
11:11 19 13.4 70 270 2.2 3.6 1003.3
11:19 19.1 13.5 70 264 2.8 9.2 1003.1
11:29 19.2 13.4 69 260 1.9 4.2 1003.2
11:40 19.6 13.3 67 3.6 5.8 1003.2
11:54 19.8 13.5 67 220 6.4 15.3 1003.2
12:04 20.2 13.9 67 214 7.2 11.1 1003.1
12:15 20.6 14.3 67 218 6.9 12.8 1002.9
12:25 21.1 15.2 69 221 5.6 13.1 1002.7
12:34 21.6 15.4 68 211 4.7 8.6 1002.5
12:45 22.1 15.7 67 215 4.7 7.8 1002.6
12:55 22.6 15.7 65 213 4.7 7.8 1002.5
13:05 22.9 15.5 63 226 4.7 7.2 1002.4
13:15 23.1 15.9 64 233 5.3 9.2 1002.3
13:25 23.4 16.5 65 221 4.4 8.1 1002.3
13:35 23.6 16.4 64 230 4.7 8.6 1002.2
13:45 23.6 15.9 62 83 5.6 8.3 1002.1
13:56 23.7 16.2 63 145 4.4 7.8 1002.1
14:05 23.8 16.3 63 96 3.9 8.1 1002
14:15 24 16.5 63 240 3.9 6.4 1002
14:25 24.2 16.7 63 52 4.7 8.9 1002
14:36 24.2 16.2 61 246 3.1 5.3 1001.9
14:45 24.1 16.6 63 258 3.3 5.6 1001.8
14:55 24.1 17.1 65 270 3.1 5.3 1001.5
15:06 24.1 16.9 64 270 3.9 7.2 1001.5
15:16 24.2 16.7 63 263 2.5 4.4 1001.5
15:20 24.1 16.6 63 280 3.9 8.6 1001.5
15:30 24.3 16.6 62 256 3.6 5.6 1001.5
15:40 24.4 16.7 62 266 3.3 6.7 1001.6
15:50 24.2 16.7 63 319 1.9 3.6 1001.6
16:00 24 16.8 64 303 3.1 4.7 1001.6
16:11 23.9 16.4 63 323 1.7 3.9 1001.6
16:20 23.8 16.3 63 301 2.8 5.3 1001.6
16:30 23.5 16.3 64 308 3.3 5.3 1001.4
16:40 23.3 15.9 63 294 3.3 6.4 1001.2
16:51 22.9 15.7 64 293 4.2 7.2 1001.6
17:00 22.6 15.7 65 298 4.4 6.9 1001.6
17:10 22.5 15.6 65 297 4.2 6.4 1001.6
17:21 22.3 15.4 65 301 3.3 5.6 1001.5
17:31 22 14.9 64 283 2.5 4.4 1001.6
17:40 21.7 14.6 64 289 3.1 5.3 1001.5
17:51 21.3 14.2 64 289 2.5 4.4 1001.4
18:01 20.9 14.1 65 291 3.9 6.9 1001.6
18:11 20.5 14.2 67 279 3.3 6.4 1002.2
18:21 20.1 14.2 69 275 3.1 5.3 1002.4
18:31 19.4 14.9 75 302 3.3 7.5 1002.1
18:41 18.6 14.9 79 276 2.8 5.3 1002.8
18:49 17.8 15.1 84 284 2.8 6.7 1003.2
18:58 16.8 15.3 91 292 5 7.5 1002.6
19:08 16.2 15.4 95 280 1.9 4.2 1002.8
19:19 15.8 15 95 270 1.1 1.7 1003.1
19:29 15.5 14.9 96 286 1.1 2.2 1003.6
19:39 15.4 14.9 97 301 3.3 5 1003
19:48 15.3 14.8 97 310 1.7 2.8 1002.8
19:59 15.2 14.7 97 322 1.4 2.2 1002.6
20:09 15.2 14.9 98 290 1.7 2.8 1002.8
20:19 15.2 14.9 98 311 1.7 3.6 1002.6
20:29 15.2 14.9 98 303 1.9 3.6 1002.6
20:39 15.2 14.9 98 301 2.5 5 1002.7
20:49 15.1 14.8 98 292 3.3 5.6 1003.1
20:59 15 14.7 98 301 4.2 6.1 1003.1
21:09 15 14.7 98 293 3.3 5.3 1003.3
21:19 15 14.7 98 291 3.1 5.3 1003.7
21:29 14.9 14.6 98 291 3.1 5.3 1003.7
21:40 14.8 14.5 98 290 2.5 3.6 1003.7
21:53 14.8 14.5 98 288 2.8 6.1 1003.8
22:03 14.8 14.5 98 292 3.9 5.6 1003.8
22:14 14.6 14.3 98 294 3.9 5.3 1003.8
22:23 14.6 14.3 98 287 3.1 4.4 1003.9
22:33 14.6 14.3 98 279 2.2 3.9 1004.1
22:44 14.6 14.3 98 287 3.6 5.8 1004.1
22:54 14.4 14.1 98 289 3.6 5.3 1004.2
23:04 14.4 14.1 98 290 3.3 5 1004.1
23:14 14.3 14 98 293 3.3 5.6 1004.1
23:24 14.3 14.1 99 291 3.3 5.3 1004
23:34 14.2 14 99 292 3.3 5 1004
23:44 14.2 14 99 275 2.8 3.9 1004.3
23:54 14.1 13.9 99 309 2.2 5 1004.1

DAY STATISTIC

2021-05-11
TEMPERATURE
AVERAGE
18.0
HIGH
24.4
15:40
LOW
14.1
23:54
PRESSURE
AVERAGE
1003.4
HIGH
1007.1
00:17
LOW
1001.2
16:40
DEWPOINT
AVERAGE
13.3
HIGH
17.1
14:55
LOW
9.6
05:08
HUMIDITY
AVERAGE
75
HIGH
99
23:24
LOW
61
14:36
WIND SPEED
AVERAGE
2.9
HIGH
7.2
09:10
WIND GUST
AVERAGE
5.4
HIGH
16.4
09:10
WIND DIRECTION
PREVAILING
W
50.7%
N
0.7
NE
2.8
E
5.6
SE
0.7
S
1.4
SW
18.3
W
50.7
NW
16.9
TEMPERATURE (°C)
LOW
14.1
HIGH
24.4
AVERAGE
18.0
PRESSURE (hpa)
LOW
1001.2
HIGH
1007.1
AVERAGE
1003.4
DEVICE